createdAt,value
2023-03-17T00:00:19.664Z,4.60
2023-03-17T00:02:47.647Z,4.50
2023-03-17T00:05:24.635Z,4.50
2023-03-17T00:07:52.666Z,4.50
2023-03-17T00:10:22.031Z,4.50
2023-03-17T00:12:49.501Z,4.40
2023-03-17T00:15:17.765Z,4.40
2023-03-17T00:17:45.118Z,4.40
2023-03-17T00:20:12.867Z,4.40
2023-03-17T00:22:39.907Z,4.40
2023-03-17T00:25:18.054Z,4.60
2023-03-17T00:27:44.634Z,4.40
2023-03-17T00:30:11.544Z,4.50
2023-03-17T00:32:39.830Z,4.40
2023-03-17T00:35:17.210Z,4.40
2023-03-17T00:37:44.230Z,4.40
2023-03-17T00:40:21.568Z,4.40
2023-03-17T00:42:49.166Z,4.50
2023-03-17T00:45:16.671Z,4.50
2023-03-17T00:47:43.721Z,4.60
2023-03-17T00:50:11.500Z,4.60
2023-03-17T00:52:38.904Z,4.60
2023-03-17T00:55:06.414Z,4.60
2023-03-17T00:57:32.977Z,4.60
2023-03-17T00:59:59.549Z,4.60
2023-03-17T01:02:26.212Z,4.60
2023-03-17T01:05:05.401Z,4.60
2023-03-17T01:07:32.781Z,4.60
2023-03-17T01:09:59.565Z,4.70
2023-03-17T01:12:26.396Z,4.70
2023-03-17T01:14:53.225Z,4.70
2023-03-17T01:17:25.877Z,4.70
2023-03-17T01:19:52.761Z,4.70
2023-03-17T01:22:19.467Z,4.70
2023-03-17T01:24:47.820Z,4.70
2023-03-17T01:27:14.403Z,4.70
2023-03-17T01:29:40.980Z,4.70
2023-03-17T01:32:07.639Z,4.70
2023-03-17T01:34:35.079Z,4.70
2023-03-17T01:37:01.648Z,4.70
2023-03-17T01:39:28.362Z,4.70
2023-03-17T01:42:00.315Z,4.70
2023-03-17T01:44:27.427Z,4.70
2023-03-17T01:46:54.557Z,4.70
2023-03-17T01:49:27.654Z,4.70
2023-03-17T01:52:01.114Z,4.70
2023-03-17T01:54:34.801Z,4.70
2023-03-17T01:57:10.442Z,4.70
2023-03-17T01:59:39.641Z,4.70
2023-03-17T02:02:08.058Z,4.60
2023-03-17T02:04:35.322Z,4.60
2023-03-17T02:07:03.755Z,4.60
2023-03-17T02:09:31.540Z,4.60
2023-03-17T02:11:59.761Z,4.50
2023-03-17T02:14:26.733Z,4.70
2023-03-17T02:16:53.767Z,4.60
2023-03-17T02:19:20.996Z,4.60
2023-03-17T02:21:49.952Z,4.60
2023-03-17T02:24:22.659Z,4.60
2023-03-17T02:26:51.443Z,4.60
2023-03-17T02:29:19.110Z,4.70
2023-03-17T02:31:45.814Z,4.60
2023-03-17T02:34:12.519Z,4.60
2023-03-17T02:36:39.187Z,4.50
2023-03-17T02:39:05.845Z,4.50
2023-03-17T02:41:32.886Z,4.50
2023-03-17T02:43:59.829Z,4.50
2023-03-17T02:46:27.170Z,4.60
2023-03-17T02:48:54.267Z,4.40
2023-03-17T02:51:21.012Z,4.40
2023-03-17T02:53:47.682Z,4.40
2023-03-17T02:56:14.290Z,4.50
2023-03-17T02:58:40.893Z,4.40
2023-03-17T03:01:09.107Z,4.40
2023-03-17T03:03:36.305Z,4.40
2023-03-17T03:06:03.349Z,4.40
2023-03-17T03:08:30.318Z,4.40
2023-03-17T03:10:57.101Z,4.40
2023-03-17T03:13:23.777Z,4.60
2023-03-17T03:15:50.432Z,4.40
2023-03-17T03:18:17.155Z,4.50
2023-03-17T03:20:44.645Z,4.40
2023-03-17T03:23:11.681Z,4.30
2023-03-17T03:25:38.761Z,4.40
2023-03-17T03:28:06.538Z,4.30
2023-03-17T03:30:33.371Z,4.30
2023-03-17T03:33:00.192Z,4.40
2023-03-17T03:35:27.579Z,4.30
2023-03-17T03:37:54.217Z,4.20
2023-03-17T03:40:21.004Z,4.20
2023-03-17T03:42:47.579Z,4.10
2023-03-17T03:45:14.190Z,4.20
2023-03-17T03:47:40.831Z,4.20
2023-03-17T03:50:08.627Z,4.10
2023-03-17T03:52:35.466Z,4.10
2023-03-17T03:55:02.056Z,4.10
2023-03-17T03:57:28.987Z,4.10
2023-03-17T03:59:55.711Z,4.00
2023-03-17T04:02:22.528Z,4.10
2023-03-17T04:04:49.829Z,4.00
2023-03-17T04:07:16.691Z,4.00
2023-03-17T04:09:43.251Z,4.00
2023-03-17T04:12:10.095Z,4.00
2023-03-17T04:14:36.847Z,4.00
2023-03-17T04:17:04.677Z,4.00
2023-03-17T04:19:31.493Z,4.00
2023-03-17T04:21:58.277Z,4.00
2023-03-17T04:24:25.159Z,4.00
2023-03-17T04:26:51.985Z,3.90
2023-03-17T04:29:19.038Z,4.00
2023-03-17T04:31:46.002Z,3.90
2023-03-17T04:34:16.835Z,3.90
2023-03-17T04:36:44.124Z,3.90
2023-03-17T04:39:10.813Z,3.80
2023-03-17T04:41:37.736Z,3.80
2023-03-17T04:44:04.485Z,3.80
2023-03-17T04:46:31.133Z,3.90
2023-03-17T04:48:57.668Z,3.90
2023-03-17T04:51:24.268Z,3.80
2023-03-17T04:53:50.983Z,3.80
2023-03-17T04:56:17.629Z,3.80
2023-03-17T04:58:44.764Z,3.80
2023-03-17T05:01:11.652Z,3.80
2023-03-17T05:03:38.710Z,3.80
2023-03-17T05:06:05.449Z,3.80
2023-03-17T05:08:32.035Z,3.80
2023-03-17T05:10:58.752Z,3.80
2023-03-17T05:13:26.337Z,3.80
2023-03-17T05:15:54.698Z,3.80
2023-03-17T05:18:23.194Z,3.80
2023-03-17T05:20:49.759Z,3.80
2023-03-17T05:23:16.513Z,3.80
2023-03-17T05:25:43.266Z,3.80
2023-03-17T05:28:10.121Z,3.80
2023-03-17T05:30:36.743Z,3.80
2023-03-17T05:33:03.592Z,3.80
2023-03-17T05:35:30.282Z,3.90
2023-03-17T05:37:56.876Z,3.90
2023-03-17T05:40:24.017Z,3.80
2023-03-17T05:42:51.463Z,3.80
2023-03-17T05:45:18.617Z,3.80
2023-03-17T05:47:45.722Z,3.80
2023-03-17T05:50:12.814Z,3.80
2023-03-17T05:52:39.421Z,3.80
2023-03-17T05:55:06.414Z,3.80
2023-03-17T05:57:33.505Z,3.90
2023-03-17T06:00:00.127Z,3.90
2023-03-17T06:02:27.156Z,3.90
2023-03-17T06:04:53.807Z,4.00
2023-03-17T06:07:20.533Z,4.00
2023-03-17T06:09:47.604Z,4.10
2023-03-17T06:12:14.175Z,4.10
2023-03-17T06:14:40.702Z,4.20
2023-03-17T06:17:07.508Z,4.30
2023-03-17T06:19:34.268Z,4.50
2023-03-17T06:22:00.908Z,4.70
2023-03-17T06:24:27.492Z,4.90
2023-03-17T06:26:54.135Z,5.30
2023-03-17T06:29:20.704Z,5.70
2023-03-17T06:31:50.794Z,6.10
2023-03-17T06:34:17.927Z,6.30
2023-03-17T06:36:45.319Z,6.60
2023-03-17T06:39:12.395Z,6.80
2023-03-17T06:41:39.227Z,7.00
2023-03-17T06:44:06.199Z,7.10
2023-03-17T06:46:33.169Z,7.20
2023-03-17T06:48:59.922Z,7.20
2023-03-17T06:51:26.502Z,7.30
2023-03-17T06:53:53.132Z,7.40
2023-03-17T06:56:29.525Z,7.70
2023-03-17T06:58:56.978Z,8.10
2023-03-17T07:01:23.953Z,9.20
2023-03-17T07:03:50.826Z,9.80
2023-03-17T07:06:17.445Z,10.20
2023-03-17T07:08:43.998Z,10.40
2023-03-17T07:11:11.105Z,10.30
2023-03-17T07:13:38.798Z,10.10
2023-03-17T07:16:05.533Z,10.00
2023-03-17T07:18:33.723Z,10.20
2023-03-17T07:21:01.805Z,10.60
2023-03-17T07:23:29.439Z,11.10
2023-03-17T07:25:57.329Z,11.70
2023-03-17T07:28:24.392Z,12.50
2023-03-17T07:30:51.125Z,13.00
2023-03-17T07:33:19.982Z,13.70
2023-03-17T07:35:47.278Z,14.10
2023-03-17T07:38:13.897Z,14.10
2023-03-17T07:40:40.813Z,14.40
2023-03-17T07:43:08.264Z,15.00
2023-03-17T07:45:36.052Z,15.40
2023-03-17T07:48:04.988Z,15.70
2023-03-17T07:50:32.217Z,16.10
2023-03-17T07:52:58.890Z,16.10
2023-03-17T07:55:25.656Z,16.70
2023-03-17T07:57:52.855Z,16.60
2023-03-17T08:00:19.657Z,17.10
2023-03-17T08:02:53.740Z,17.10
2023-03-17T08:05:27.152Z,17.30
2023-03-17T08:07:54.305Z,17.10
2023-03-17T08:10:21.409Z,17.20
2023-03-17T08:12:51.841Z,17.30
2023-03-17T08:15:18.704Z,17.40
2023-03-17T08:17:45.314Z,16.90
2023-03-17T08:20:12.330Z,16.30
2023-03-17T08:22:39.073Z,15.90
2023-03-17T08:25:05.804Z,15.20
2023-03-17T08:27:33.918Z,15.40
2023-03-17T08:30:00.634Z,15.90
2023-03-17T08:32:27.366Z,16.50
2023-03-17T08:34:54.461Z,16.40
2023-03-17T08:37:22.204Z,16.80
2023-03-17T08:39:49.156Z,17.10
2023-03-17T08:42:15.829Z,17.10
2023-03-17T08:44:44.083Z,17.30
2023-03-17T08:47:10.921Z,17.60
2023-03-17T08:49:38.522Z,18.00
2023-03-17T08:52:05.267Z,19.10
2023-03-17T08:54:32.165Z,19.60
2023-03-17T08:56:58.969Z,20.40
2023-03-17T08:59:25.530Z,20.60
2023-03-17T09:01:52.090Z,20.50
2023-03-17T09:04:18.776Z,21.00
2023-03-17T09:07:01.772Z,21.60
2023-03-17T09:09:31.056Z,23.00
2023-03-17T09:11:57.665Z,22.60
2023-03-17T09:14:24.844Z,21.80
2023-03-17T09:16:52.251Z,21.60
2023-03-17T09:19:18.943Z,21.40
2023-03-17T09:21:45.758Z,22.00
2023-03-17T09:24:12.522Z,22.00
2023-03-17T09:26:39.259Z,22.90
2023-03-17T09:29:07.225Z,22.70
2023-03-17T09:31:36.120Z,22.10
2023-03-17T09:34:04.895Z,22.20
2023-03-17T09:36:33.007Z,21.90
2023-03-17T09:39:00.499Z,22.50
2023-03-17T09:41:34.200Z,23.30
2023-03-17T09:44:24.268Z,23.50
2023-03-17T09:47:02.415Z,23.50
2023-03-17T09:49:42.578Z,23.90
2023-03-17T09:52:13.265Z,24.50
2023-03-17T09:54:39.995Z,23.60
2023-03-17T09:57:12.486Z,24.30
2023-03-17T09:59:41.928Z,24.40
2023-03-17T10:02:18.552Z,25.30
2023-03-17T10:04:46.195Z,25.90
2023-03-17T10:07:16.108Z,26.10
2023-03-17T10:09:46.172Z,26.30
2023-03-17T10:12:20.040Z,26.00
2023-03-17T10:14:51.262Z,26.00
2023-03-17T10:17:19.657Z,26.60
2023-03-17T10:19:50.262Z,26.90
2023-03-17T10:22:17.634Z,27.30
2023-03-17T10:24:46.737Z,27.50
2023-03-17T10:27:14.874Z,28.90
2023-03-17T10:29:42.278Z,29.20
2023-03-17T10:32:13.132Z,28.20
2023-03-17T10:34:41.402Z,27.60
2023-03-17T10:37:12.431Z,28.40
2023-03-17T10:39:42.145Z,29.80
2023-03-17T10:42:13.989Z,30.30
2023-03-17T10:45:03.685Z,30.30
2023-03-17T10:47:44.506Z,30.10
2023-03-17T10:50:23.136Z,29.20
2023-03-17T10:53:00.638Z,28.70
2023-03-17T10:55:39.196Z,28.90
2023-03-17T10:58:07.702Z,28.40
2023-03-17T11:00:35.611Z,28.90
2023-03-17T11:03:04.196Z,28.60
2023-03-17T11:05:31.321Z,27.80
2023-03-17T11:08:05.802Z,26.50
2023-03-17T11:10:36.085Z,27.00
2023-03-17T11:13:02.640Z,26.90
2023-03-17T11:15:34.360Z,27.30
2023-03-17T11:18:03.167Z,27.50
2023-03-17T11:20:45.774Z,28.00
2023-03-17T11:23:31.628Z,27.70
2023-03-17T11:26:24.234Z,27.50
2023-03-17T11:29:06.698Z,26.80
2023-03-17T11:31:51.694Z,26.70
2023-03-17T11:34:18.251Z,27.20
2023-03-17T11:36:57.810Z,27.00
2023-03-17T11:39:36.332Z,26.90
2023-03-17T11:42:02.903Z,27.50
2023-03-17T11:44:42.083Z,27.00
2023-03-17T11:47:09.059Z,27.20
2023-03-17T11:49:39.562Z,26.70
2023-03-17T11:52:09.200Z,25.70
2023-03-17T11:54:39.721Z,26.00
2023-03-17T11:57:12.527Z,26.70
2023-03-17T11:59:41.988Z,26.50
2023-03-17T12:02:19.352Z,25.80
2023-03-17T12:04:57.289Z,25.70
2023-03-17T12:07:31.646Z,25.20
2023-03-17T12:10:05.937Z,24.70
2023-03-17T12:12:39.790Z,24.90
2023-03-17T12:15:14.840Z,25.50
2023-03-17T12:17:49.148Z,26.40
2023-03-17T12:20:18.570Z,26.80
2023-03-17T12:22:57.138Z,26.90
2023-03-17T12:25:35.777Z,27.60
2023-03-17T12:28:11.005Z,28.10
2023-03-17T12:30:48.358Z,28.00
2023-03-17T12:33:24.688Z,28.60
2023-03-17T12:35:52.015Z,29.50
2023-03-17T12:38:39.732Z,29.30
2023-03-17T12:41:25.291Z,28.60
2023-03-17T12:44:01.216Z,28.50
2023-03-17T12:46:40.019Z,28.40
2023-03-17T12:49:09.383Z,27.70
2023-03-17T12:51:43.460Z,27.70
2023-03-17T12:54:18.191Z,27.60
2023-03-17T12:56:46.323Z,26.70
2023-03-17T12:59:20.888Z,26.60
2023-03-17T13:01:55.753Z,26.50
2023-03-17T13:04:27.364Z,26.10
2023-03-17T13:07:18.196Z,25.70
2023-03-17T13:09:54.023Z,25.70
2023-03-17T13:12:40.067Z,25.90
2023-03-17T13:15:24.965Z,25.80
2023-03-17T13:18:10.358Z,25.50
2023-03-17T13:20:38.203Z,25.40
2023-03-17T13:23:11.083Z,25.30
2023-03-17T13:25:46.373Z,24.70
2023-03-17T13:28:12.905Z,24.80
2023-03-17T13:30:39.843Z,24.80
2023-03-17T13:33:15.674Z,24.50
2023-03-17T13:35:53.020Z,24.20
2023-03-17T13:38:22.584Z,23.80
2023-03-17T13:40:52.231Z,23.70
2023-03-17T13:43:51.777Z,23.60
2023-03-17T13:46:18.397Z,23.10
2023-03-17T13:48:45.261Z,23.00
2023-03-17T13:51:14.954Z,22.90
2023-03-17T13:53:44.642Z,23.00
2023-03-17T13:56:14.517Z,22.80
2023-03-17T13:58:53.014Z,22.50
2023-03-17T14:01:20.348Z,22.40
2023-03-17T14:03:48.978Z,22.40
2023-03-17T14:06:17.978Z,22.10
2023-03-17T14:08:46.654Z,21.90
2023-03-17T14:11:22.793Z,21.80
2023-03-17T14:13:53.787Z,21.90
2023-03-17T14:16:24.308Z,21.70
2023-03-17T14:18:55.916Z,21.60
2023-03-17T14:21:29.908Z,21.40
2023-03-17T14:23:57.700Z,21.20
2023-03-17T14:26:25.478Z,21.20
2023-03-17T14:28:52.079Z,21.30
2023-03-17T14:31:26.790Z,21.30
2023-03-17T14:33:57.290Z,21.30
2023-03-17T14:36:24.264Z,21.20
2023-03-17T14:38:52.404Z,21.00
2023-03-17T14:41:21.005Z,20.70
2023-03-17T14:43:48.199Z,20.90
2023-03-17T14:46:16.400Z,20.80
2023-03-17T14:48:44.238Z,20.90
2023-03-17T14:51:22.993Z,20.70
2023-03-17T14:53:51.460Z,20.60
2023-03-17T14:56:25.576Z,20.40
2023-03-17T14:58:52.600Z,20.30
2023-03-17T15:01:36.859Z,20.30
2023-03-17T15:04:21.104Z,20.20
2023-03-17T15:06:58.378Z,20.10
2023-03-17T15:09:29.502Z,20.20
2023-03-17T15:11:59.245Z,20.20
2023-03-17T15:14:31.883Z,20.00
2023-03-17T15:17:01.095Z,19.90
2023-03-17T15:19:29.074Z,20.00
2023-03-17T15:22:00.434Z,19.80
2023-03-17T15:24:33.253Z,19.70
2023-03-17T15:27:01.209Z,19.60
2023-03-17T15:29:27.969Z,19.60
2023-03-17T15:31:59.917Z,19.50
2023-03-17T15:34:27.104Z,19.50
2023-03-17T15:36:53.633Z,19.40
2023-03-17T15:39:20.161Z,19.30
2023-03-17T15:41:46.740Z,19.30
2023-03-17T15:44:13.314Z,19.30
2023-03-17T15:46:39.924Z,19.10
2023-03-17T15:49:11.147Z,19.30
2023-03-17T15:51:37.706Z,19.00
2023-03-17T15:54:04.602Z,19.00
2023-03-17T15:56:31.231Z,19.10
2023-03-17T15:58:57.777Z,19.00
2023-03-17T16:01:27.616Z,19.10
2023-03-17T16:03:54.656Z,19.00
2023-03-17T16:06:22.405Z,18.90
2023-03-17T16:08:49.279Z,18.90
2023-03-17T16:11:20.258Z,18.80
2023-03-17T16:13:47.135Z,18.60
2023-03-17T16:16:31.714Z,18.80
2023-03-17T16:18:58.464Z,18.70
2023-03-17T16:21:25.105Z,18.90
2023-03-17T16:23:51.744Z,19.00
2023-03-17T16:26:18.610Z,19.10
2023-03-17T16:28:46.130Z,19.00
2023-03-17T16:31:17.772Z,19.10
2023-03-17T16:33:44.564Z,19.00
2023-03-17T16:36:14.049Z,18.90
2023-03-17T16:38:40.857Z,18.70
2023-03-17T16:41:08.914Z,18.60
2023-03-17T16:43:37.784Z,18.70
2023-03-17T16:46:05.661Z,18.70
2023-03-17T16:48:32.642Z,18.40
2023-03-17T16:50:59.358Z,18.30
2023-03-17T16:53:26.323Z,18.10
2023-03-17T16:55:54.219Z,17.80
2023-03-17T16:58:22.447Z,17.60
2023-03-17T17:00:49.830Z,17.10
2023-03-17T17:03:16.761Z,17.30
2023-03-17T17:05:44.097Z,17.20
2023-03-17T17:08:11.083Z,17.10
2023-03-17T17:10:38.408Z,16.90
2023-03-17T17:13:07.689Z,16.80
2023-03-17T17:15:35.207Z,16.80
2023-03-17T17:18:03.201Z,16.70
2023-03-17T17:20:40.558Z,16.50
2023-03-17T17:23:10.914Z,16.40
2023-03-17T17:25:37.768Z,16.30
2023-03-17T17:28:04.428Z,16.30
2023-03-17T17:30:31.477Z,16.20
2023-03-17T17:32:59.424Z,16.10
2023-03-17T17:35:26.968Z,16.10
2023-03-17T17:37:53.800Z,16.00
2023-03-17T17:40:21.168Z,15.80
2023-03-17T17:42:47.850Z,15.70
2023-03-17T17:45:15.353Z,15.70
2023-03-17T17:47:42.063Z,15.60
2023-03-17T17:50:09.688Z,15.50
2023-03-17T17:52:36.314Z,15.40
2023-03-17T17:55:03.442Z,15.40
2023-03-17T17:57:30.048Z,15.40
2023-03-17T17:59:56.748Z,15.30
2023-03-17T18:02:23.383Z,15.20
2023-03-17T18:04:51.486Z,15.20
2023-03-17T18:07:18.094Z,15.10
2023-03-17T18:09:44.640Z,15.00
2023-03-17T18:12:11.260Z,15.00
2023-03-17T18:14:37.816Z,14.90
2023-03-17T18:17:04.892Z,14.80
2023-03-17T18:19:31.972Z,14.80
2023-03-17T18:21:58.556Z,14.70
2023-03-17T18:24:25.108Z,14.60
2023-03-17T18:26:52.467Z,14.60
2023-03-17T18:29:19.022Z,14.50
2023-03-17T18:31:47.050Z,14.50
2023-03-17T18:34:22.940Z,14.50
2023-03-17T18:36:50.353Z,14.40
2023-03-17T18:39:17.030Z,14.40
2023-03-17T18:41:44.138Z,14.30
2023-03-17T18:44:11.026Z,14.30
2023-03-17T18:46:38.132Z,14.20
2023-03-17T18:49:05.270Z,14.10
2023-03-17T18:51:31.946Z,14.10
2023-03-17T18:53:58.527Z,14.00
2023-03-17T18:56:29.009Z,13.90
2023-03-17T18:58:56.316Z,13.90
2023-03-17T19:01:23.081Z,13.90
2023-03-17T19:03:49.982Z,13.80
2023-03-17T19:06:17.950Z,13.80
2023-03-17T19:08:44.712Z,13.80
2023-03-17T19:11:12.257Z,13.70
2023-03-17T19:13:38.874Z,13.60
2023-03-17T19:16:07.460Z,13.60
2023-03-17T19:18:34.224Z,13.50
2023-03-17T19:21:01.240Z,13.50
2023-03-17T19:23:28.763Z,13.40
2023-03-17T19:25:55.630Z,13.30
2023-03-17T19:28:22.267Z,13.30
2023-03-17T19:30:48.978Z,13.20
2023-03-17T19:33:15.960Z,13.10
2023-03-17T19:35:45.930Z,13.10
2023-03-17T19:38:12.579Z,13.00
2023-03-17T19:40:39.211Z,12.90
2023-03-17T19:43:06.299Z,12.80
2023-03-17T19:45:33.164Z,12.70
2023-03-17T19:47:59.979Z,12.60
2023-03-17T19:50:26.607Z,12.60
2023-03-17T19:52:53.471Z,12.60
2023-03-17T19:55:20.703Z,12.50
2023-03-17T19:57:47.643Z,12.50
2023-03-17T20:00:14.440Z,12.40
2023-03-17T20:02:41.208Z,12.30
2023-03-17T20:05:08.502Z,12.30
2023-03-17T20:07:35.189Z,12.30
2023-03-17T20:10:02.045Z,12.20
2023-03-17T20:12:32.778Z,12.10
2023-03-17T20:15:00.400Z,12.10
2023-03-17T20:17:27.284Z,12.00
2023-03-17T20:19:53.820Z,11.90
2023-03-17T20:22:20.399Z,11.90
2023-03-17T20:24:47.048Z,11.90
2023-03-17T20:27:16.769Z,11.80
2023-03-17T20:29:44.029Z,11.80
2023-03-17T20:32:11.395Z,11.80
2023-03-17T20:34:38.001Z,11.70
2023-03-17T20:37:04.570Z,11.70
2023-03-17T20:39:32.327Z,11.60
2023-03-17T20:41:58.994Z,11.50
2023-03-17T20:44:25.739Z,11.40
2023-03-17T20:46:53.246Z,11.30
2023-03-17T20:49:19.935Z,11.30
2023-03-17T20:51:46.477Z,11.20
2023-03-17T20:54:13.344Z,11.20
2023-03-17T20:56:40.020Z,11.10
2023-03-17T20:59:09.479Z,10.60
2023-03-17T21:01:37.149Z,11.00
2023-03-17T21:04:08.507Z,11.00
2023-03-17T21:06:36.226Z,10.90
2023-03-17T21:09:03.049Z,10.90
2023-03-17T21:11:30.649Z,10.80
2023-03-17T21:13:57.833Z,10.80
2023-03-17T21:16:26.360Z,10.70
2023-03-17T21:18:53.277Z,10.70
2023-03-17T21:21:20.639Z,10.70
2023-03-17T21:23:47.629Z,10.70
2023-03-17T21:26:14.889Z,10.70
2023-03-17T21:28:42.419Z,10.60
2023-03-17T21:31:09.609Z,10.70
2023-03-17T21:33:36.366Z,10.60
2023-03-17T21:36:03.157Z,10.60
2023-03-17T21:38:29.900Z,10.60
2023-03-17T21:40:57.569Z,10.50
2023-03-17T21:43:24.828Z,10.50
2023-03-17T21:45:51.483Z,10.50
2023-03-17T21:48:18.229Z,10.40
2023-03-17T21:50:44.781Z,10.30
2023-03-17T21:53:14.660Z,10.30
2023-03-17T21:55:41.518Z,10.20
2023-03-17T21:58:08.711Z,10.20
2023-03-17T22:00:44.822Z,10.10
2023-03-17T22:03:12.330Z,10.10
2023-03-17T22:05:38.924Z,10.10
2023-03-17T22:08:05.640Z,10.10
2023-03-17T22:10:32.622Z,9.80
2023-03-17T22:12:59.328Z,10.00
2023-03-17T22:15:26.649Z,9.90
2023-03-17T22:17:53.300Z,9.80
2023-03-17T22:20:20.059Z,9.80
2023-03-17T22:22:46.601Z,9.70
2023-03-17T22:25:13.293Z,9.70
2023-03-17T22:27:40.086Z,9.60
2023-03-17T22:30:06.825Z,9.50
2023-03-17T22:32:33.462Z,9.40
2023-03-17T22:35:00.266Z,9.30
2023-03-17T22:37:27.921Z,9.20
2023-03-17T22:39:54.500Z,9.10
2023-03-17T22:42:21.054Z,9.10
2023-03-17T22:44:47.598Z,9.00
2023-03-17T22:47:14.201Z,8.90
2023-03-17T22:49:40.897Z,8.80
2023-03-17T22:52:08.619Z,8.70
2023-03-17T22:54:35.624Z,8.70
2023-03-17T22:57:03.442Z,8.60
2023-03-17T22:59:31.153Z,8.60
2023-03-17T23:01:57.743Z,8.50
2023-03-17T23:04:24.694Z,8.40
2023-03-17T23:06:52.397Z,8.30
2023-03-17T23:09:19.625Z,8.30
2023-03-17T23:11:47.300Z,8.20
2023-03-17T23:14:13.860Z,8.20
2023-03-17T23:16:40.843Z,8.10
2023-03-17T23:19:07.503Z,8.00
2023-03-17T23:21:36.421Z,8.00
2023-03-17T23:24:03.892Z,8.00
2023-03-17T23:26:32.063Z,7.90
2023-03-17T23:28:58.673Z,7.80
2023-03-17T23:31:25.526Z,7.80
2023-03-17T23:33:52.617Z,7.80
2023-03-17T23:36:19.322Z,7.80
2023-03-17T23:38:45.916Z,7.80
2023-03-17T23:41:13.100Z,7.80
2023-03-17T23:43:40.331Z,7.80
2023-03-17T23:46:07.070Z,7.70
2023-03-17T23:48:34.206Z,7.80
2023-03-17T23:51:01.119Z,7.80
2023-03-17T23:53:28.420Z,7.80
2023-03-17T23:55:55.102Z,7.80
2023-03-17T23:58:22.459Z,7.70
